createdAt,value
2023-02-22T00:00:34.259Z,6.7
2023-02-22T00:06:26.003Z,6.3
2023-02-22T00:12:18.251Z,6.1
2023-02-22T00:18:12.005Z,6
2023-02-22T00:24:03.733Z,6.4
2023-02-22T00:29:55.852Z,6.6
2023-02-22T00:35:34.608Z,6.7
2023-02-22T00:41:11.210Z,6.6
2023-02-22T00:47:03.799Z,5.9
2023-02-22T00:52:26.284Z,6.2
2023-02-22T00:58:18.713Z,6.6
2023-02-22T01:04:12.579Z,6.4
2023-02-22T01:09:50.507Z,5.3
2023-02-22T01:15:43.862Z,5.1
2023-02-22T01:21:22.401Z,4.3
2023-02-22T01:27:15.273Z,3.8
2023-02-22T01:32:52.612Z,3.6
2023-02-22T01:38:29.354Z,3.7
2023-02-22T01:44:08.069Z,3.3
2023-02-22T01:50:00.055Z,3.6
2023-02-22T01:55:52.260Z,3.4
2023-02-22T02:01:44.759Z,3.4
2023-02-22T02:07:37.408Z,3.5
2023-02-22T02:13:29.860Z,3.5
2023-02-22T02:19:07.522Z,3.3
2023-02-22T02:24:29.338Z,3.2
2023-02-22T02:30:05.875Z,3.1
2023-02-22T02:36:00.100Z,2.7
2023-02-22T02:41:53.213Z,2.4
2023-02-22T02:47:15.025Z,2.3
2023-02-22T02:53:09.086Z,2.5
2023-02-22T02:59:00.563Z,2.4
2023-02-22T03:04:37.994Z,2.6
2023-02-22T03:10:31.970Z,2.6
2023-02-22T03:16:24.390Z,2.6
2023-02-22T03:22:16.462Z,2.9
2023-02-22T03:28:09.880Z,3.1
2023-02-22T03:33:46.525Z,3.1
2023-02-22T03:39:38.514Z,3
2023-02-22T03:45:17.312Z,2.8
2023-02-22T03:50:54.661Z,2.6
2023-02-22T03:56:48.870Z,2.4
2023-02-22T04:02:11.416Z,2.5
2023-02-22T04:08:04.302Z,2.5
2023-02-22T04:13:25.529Z,2.2
2023-02-22T04:19:18.649Z,2.1
2023-02-22T04:25:10.931Z,1.9
2023-02-22T04:31:02.818Z,1.7
2023-02-22T04:36:42.519Z,1.8
2023-02-22T04:42:19.432Z,1.5
2023-02-22T04:47:56.628Z,1.7
2023-02-22T04:53:51.862Z,1.6
2023-02-22T04:59:44.378Z,1.6
2023-02-22T05:05:21.372Z,1.3
2023-02-22T05:11:14.139Z,1.6
2023-02-22T05:16:35.852Z,1.7
2023-02-22T05:22:28.661Z,1.4
2023-02-22T05:28:21.869Z,1.5
2023-02-22T05:34:15.594Z,1.7
2023-02-22T05:40:08.164Z,1.9
2023-02-22T05:46:01.448Z,2.1
2023-02-22T05:51:39.819Z,2.6
2023-02-22T05:57:33.105Z,2.8
2023-02-22T06:03:26.544Z,3.1
2023-02-22T06:09:02.933Z,3.5
2023-02-22T06:14:54.843Z,3.9
2023-02-22T06:20:47.767Z,4.6
2023-02-22T06:26:24.704Z,5.3
2023-02-22T06:32:02.877Z,5.3
2023-02-22T06:37:40.180Z,6.1
2023-02-22T06:43:17.475Z,5.9
2023-02-22T06:48:54.985Z,6.2
2023-02-22T06:54:34.336Z,6
2023-02-22T07:00:11.349Z,6.2
2023-02-22T07:05:50.360Z,7.4
2023-02-22T07:11:30.823Z,7.9
2023-02-22T07:17:08.029Z,8.3
2023-02-22T07:22:45.824Z,8.8
2023-02-22T07:28:08.901Z,9.4
2023-02-22T07:34:03.428Z,9.1
2023-02-22T07:39:56.932Z,10
2023-02-22T07:45:50.167Z,10.2
2023-02-22T07:51:42.769Z,10.4
2023-02-22T07:57:34.311Z,10
2023-02-22T08:03:27.495Z,11.1
2023-02-22T08:09:19.810Z,11.6
2023-02-22T08:14:56.788Z,11.5
2023-02-22T08:20:51.060Z,11.8
2023-02-22T08:26:44.254Z,12.8
2023-02-22T08:32:41.943Z,12.4
2023-02-22T08:38:35.940Z,12.9
2023-02-22T08:44:28.422Z,14.1
2023-02-22T08:50:21.478Z,14.4
2023-02-22T08:56:15.951Z,14.3
2023-02-22T09:02:22.261Z,15
2023-02-22T09:08:14.644Z,15.1
2023-02-22T09:14:10.802Z,16.2
2023-02-22T09:20:12.196Z,17.1
2023-02-22T09:26:11.947Z,16.6
2023-02-22T09:32:06.864Z,16.7
2023-02-22T09:37:46.820Z,15.9
2023-02-22T09:43:40.150Z,17.6
2023-02-22T09:49:49.466Z,17.3
2023-02-22T09:55:27.112Z,16.8
2023-02-22T10:01:04.575Z,17.8
2023-02-22T10:06:58.218Z,17.6
2023-02-22T10:12:19.371Z,18.6
2023-02-22T10:17:26.301Z,18.9
2023-02-22T10:23:20.252Z,19.6
2023-02-22T10:28:56.992Z,18.6
2023-02-22T10:34:56.099Z,17.2
2023-02-22T10:40:51.974Z,18.8
2023-02-22T10:46:14.438Z,19.9
2023-02-22T10:51:53.674Z,20.1
2023-02-22T10:57:36.270Z,19.3
2023-02-22T11:03:12.706Z,19.6
2023-02-22T11:08:50.839Z,20.8
2023-02-22T11:14:29.603Z,20.3
2023-02-22T11:19:53.574Z,20.4
2023-02-22T11:25:39.488Z,20.1
2023-02-22T11:31:18.563Z,20.9
2023-02-22T11:37:25.958Z,20.3
2023-02-22T11:42:48.111Z,20.8
2023-02-22T11:48:35.333Z,21.3
2023-02-22T11:54:28.982Z,20.6
2023-02-22T12:00:03.324Z,20
2023-02-22T12:06:06.472Z,21.6
2023-02-22T12:12:04.544Z,20.6
2023-02-22T12:18:07.627Z,19.8
2023-02-22T12:24:01.177Z,20.5
2023-02-22T12:29:53.333Z,19.6
2023-02-22T12:35:47.838Z,20.2
2023-02-22T12:41:21.990Z,19.8
2023-02-22T12:47:14.763Z,19.3
2023-02-22T12:53:19.268Z,19.9
2023-02-22T12:58:56.766Z,20.2
2023-02-22T13:04:47.723Z,20.1
2023-02-22T13:10:40.129Z,19.8
2023-02-22T13:16:33.917Z,19.8
2023-02-22T13:22:11.786Z,20.1
2023-02-22T13:27:49.752Z,20
2023-02-22T13:33:59.447Z,19.9
2023-02-22T13:39:37.114Z,19.8
2023-02-22T13:45:29.840Z,20.3
2023-02-22T13:51:26.857Z,20.2
2023-02-22T13:57:21.871Z,19.9
2023-02-22T14:03:17.234Z,19.6
2023-02-22T14:09:14.352Z,19.4
2023-02-22T14:14:52.177Z,19.3
2023-02-22T14:20:53.694Z,19.2
2023-02-22T14:26:56.762Z,19.4
2023-02-22T14:33:04.581Z,18.9
2023-02-22T14:39:14.729Z,18.8
2023-02-22T14:45:10.773Z,18.6
2023-02-22T14:51:19.204Z,18.3
2023-02-22T14:57:13.224Z,18.1
2023-02-22T15:03:05.709Z,17.9
2023-02-22T15:09:10.659Z,17.6
2023-02-22T15:15:16.013Z,17.3
2023-02-22T15:21:13.077Z,17.3
2023-02-22T15:33:17.674Z,16.8
2023-02-22T15:39:11.271Z,17.1
2023-02-22T15:45:14.169Z,16.9
2023-02-22T15:51:06.913Z,16.4
2023-02-22T15:57:10.443Z,15.6
2023-02-22T16:02:50.063Z,14.9
2023-02-22T16:09:09.142Z,14.6
2023-02-22T16:14:59.640Z,14.2
2023-02-22T16:21:11.555Z,13.9
2023-02-22T16:27:17.964Z,13.9
2023-02-22T16:33:06.948Z,13.6
2023-02-22T16:38:47.355Z,13.4
2023-02-22T16:44:25.563Z,13.3
2023-02-22T16:50:04.303Z,12.9
2023-02-22T16:55:57.242Z,12.7
2023-02-22T17:01:35.207Z,12.4
2023-02-22T17:07:28.814Z,12.1
2023-02-22T17:13:20.312Z,12
2023-02-22T17:19:14.821Z,11.9
2023-02-22T17:24:37.144Z,11.6
2023-02-22T17:36:09.935Z,11.1
2023-02-22T17:42:03.856Z,10.8
2023-02-22T17:47:56.472Z,10.9
2023-02-22T17:54:29.614Z,10.7
2023-02-22T17:59:51.709Z,10.4
2023-02-22T18:05:44.855Z,10.1
2023-02-22T18:11:07.515Z,10.1
2023-02-22T18:16:45.472Z,9.7
2023-02-22T18:22:23.342Z,9.4
2023-02-22T18:28:28.815Z,9.7
2023-02-22T18:34:23.044Z,9.8
2023-02-22T18:40:16.539Z,9.6
2023-02-22T18:46:10.306Z,9.8
2023-02-22T18:52:04.840Z,10.2
2023-02-22T18:58:01.850Z,10
2023-02-22T19:03:56.049Z,9.8
2023-02-22T19:09:50.646Z,9.5
2023-02-22T19:15:44.043Z,9.3
2023-02-22T19:21:43.746Z,9.3
2023-02-22T19:27:37.841Z,9.2
2023-02-22T19:33:31.954Z,9.2
2023-02-22T19:39:26.946Z,9.4
2023-02-22T19:45:24.946Z,8.9
2023-02-22T19:51:19.175Z,8.1
2023-02-22T19:57:12.615Z,8.1
2023-02-22T20:03:06.548Z,7.9
2023-02-22T20:09:01.062Z,7.4
2023-02-22T20:14:53.645Z,7.3
2023-02-22T20:20:31.853Z,7.1
2023-02-22T20:26:25.458Z,7
2023-02-22T20:32:07.153Z,6.9
2023-02-22T20:38:02.565Z,7.1
2023-02-22T20:43:40.311Z,7.2
2023-02-22T20:49:17.072Z,7.1
2023-02-22T20:55:11.008Z,6.9
2023-02-22T21:01:06.536Z,6.7
2023-02-22T21:07:02.314Z,6.7
2023-02-22T21:12:56.895Z,6.5
2023-02-22T21:18:52.162Z,6.6
2023-02-22T21:24:45.417Z,6.5
2023-02-22T21:30:37.812Z,6.3
2023-02-22T21:36:31.824Z,6.3
2023-02-22T21:42:25.687Z,6.2
2023-02-22T21:48:18.781Z,5.9
2023-02-22T21:54:11.606Z,5.7
2023-02-22T22:00:04.766Z,5.6
2023-02-22T22:05:58.126Z,5.4
2023-02-22T22:11:51.601Z,5.2
2023-02-22T22:17:49.937Z,5
2023-02-22T22:23:42.967Z,4.9
2023-02-22T22:29:36.573Z,4.8
2023-02-22T22:35:28.954Z,4.5
2023-02-22T22:41:06.629Z,4.4
2023-02-22T22:46:44.492Z,4.3
2023-02-22T22:52:24.205Z,4.1
2023-02-22T22:58:16.577Z,3.8
2023-02-22T23:04:10.758Z,4.3
2023-02-22T23:10:04.077Z,4.1
2023-02-22T23:15:57.376Z,3.9
2023-02-22T23:21:50.932Z,3.6
2023-02-22T23:27:42.940Z,3.9
2023-02-22T23:33:21.955Z,3.9
2023-02-22T23:39:17.258Z,4
2023-02-22T23:45:10.321Z,3.9
2023-02-22T23:50:48.496Z,3.8
2023-02-22T23:56:26.415Z,4
